createdAt,value
2023-04-02T00:01:26.680Z,2.90
2023-04-02T00:04:14.565Z,2.47
2023-04-02T00:06:45.765Z,2.87
2023-04-02T00:09:36.992Z,2.50
2023-04-02T00:12:20.630Z,2.70
2023-04-02T00:14:52.572Z,2.33
2023-04-02T00:17:21.757Z,3.30
2023-04-02T00:19:56.329Z,2.67
2023-04-02T00:22:28.500Z,2.20
2023-04-02T00:24:57.454Z,2.63
2023-04-02T00:27:25.242Z,2.30
2023-04-02T00:29:54.959Z,2.50
2023-04-02T00:32:26.018Z,2.40
2023-04-02T00:34:56.104Z,2.40
2023-04-02T00:37:28.039Z,2.50
2023-04-02T00:40:01.586Z,2.23
2023-04-02T00:42:32.181Z,2.47
2023-04-02T00:45:02.429Z,2.40
2023-04-02T00:47:36.236Z,1.80
2023-04-02T00:50:19.741Z,2.10
2023-04-02T00:52:50.071Z,2.40
2023-04-02T00:55:22.737Z,2.30
2023-04-02T00:57:52.227Z,2.40
2023-04-02T01:00:25.261Z,2.60
2023-04-02T01:03:43.940Z,2.30
2023-04-02T01:06:16.711Z,1.60
2023-04-02T01:08:56.710Z,2.50
2023-04-02T01:11:37.877Z,1.97
2023-04-02T01:14:16.581Z,1.97
2023-04-02T01:16:54.135Z,2.23
2023-04-02T01:19:55.199Z,2.40
2023-04-02T01:22:35.237Z,2.27
2023-04-02T01:25:04.468Z,2.40
2023-04-02T01:27:39.805Z,2.90
2023-04-02T01:30:12.666Z,2.60
2023-04-02T01:32:41.770Z,2.10
2023-04-02T01:35:11.306Z,2.40
2023-04-02T01:37:49.696Z,2.03
2023-04-02T01:40:33.953Z,2.57
2023-04-02T01:43:14.283Z,2.30
2023-04-02T01:45:43.561Z,2.43
2023-04-02T01:48:16.697Z,2.60
2023-04-02T01:50:46.720Z,2.03
2023-04-02T01:53:16.656Z,2.83
2023-04-02T01:55:48.759Z,2.43
2023-04-02T01:58:20.697Z,2.47
2023-04-02T02:00:54.375Z,1.93
2023-04-02T02:03:22.767Z,2.10
2023-04-02T02:05:51.458Z,2.33
2023-04-02T02:08:31.248Z,2.43
2023-04-02T02:10:59.149Z,2.30
2023-04-02T02:13:27.031Z,2.93
2023-04-02T02:15:58.566Z,1.93
2023-04-02T02:18:27.603Z,2.20
2023-04-02T02:20:58.258Z,2.53
2023-04-02T02:23:29.010Z,2.30
2023-04-02T02:25:56.941Z,2.60
2023-04-02T02:28:28.837Z,2.20
2023-04-02T02:31:01.392Z,1.87
2023-04-02T02:33:31.829Z,2.10
2023-04-02T02:36:02.748Z,2.00
2023-04-02T02:38:41.854Z,2.00
2023-04-02T02:41:17.455Z,1.90
2023-04-02T02:43:50.212Z,2.00
2023-04-02T02:46:24.108Z,2.00
2023-04-02T02:48:54.965Z,1.70
2023-04-02T02:51:28.237Z,2.40
2023-04-02T02:54:00.337Z,2.03
2023-04-02T02:56:32.169Z,2.30
2023-04-02T02:59:00.322Z,1.93
2023-04-02T03:01:32.204Z,2.33
2023-04-02T03:04:01.622Z,2.10
2023-04-02T03:06:29.769Z,2.37
2023-04-02T03:09:04.428Z,1.80
2023-04-02T03:11:38.107Z,2.97
2023-04-02T03:14:16.906Z,1.83
2023-04-02T03:16:50.097Z,2.27
2023-04-02T03:19:28.499Z,2.17
2023-04-02T03:22:03.424Z,2.27
2023-04-02T03:24:37.192Z,2.33
2023-04-02T03:27:11.416Z,1.87
2023-04-02T03:29:43.361Z,1.83
2023-04-02T03:32:18.499Z,2.33
2023-04-02T03:34:50.143Z,1.77
2023-04-02T03:37:22.488Z,2.30
2023-04-02T03:39:55.880Z,1.67
2023-04-02T03:42:26.156Z,2.30
2023-04-02T03:44:58.475Z,2.20
2023-04-02T03:47:34.187Z,2.00
2023-04-02T03:50:07.429Z,2.13
2023-04-02T03:52:37.712Z,2.10
2023-04-02T03:55:15.948Z,2.30
2023-04-02T03:57:48.190Z,2.10
2023-04-02T04:00:20.821Z,2.17
2023-04-02T04:02:53.275Z,2.20
2023-04-02T04:05:26.239Z,2.20
2023-04-02T04:08:00.923Z,2.00
2023-04-02T04:10:30.368Z,2.30
2023-04-02T04:13:05.013Z,2.33
2023-04-02T04:15:37.971Z,2.13
2023-04-02T04:18:19.401Z,2.23
2023-04-02T04:20:56.304Z,2.23
2023-04-02T04:23:30.276Z,2.37
2023-04-02T04:26:02.033Z,2.00
2023-04-02T04:28:38.423Z,1.83
2023-04-02T04:31:18.081Z,2.00
2023-04-02T04:33:54.797Z,2.10
2023-04-02T04:36:29.011Z,2.20
2023-04-02T04:39:00.523Z,2.70
2023-04-02T04:41:32.839Z,2.33
2023-04-02T04:44:08.064Z,2.63
2023-04-02T04:46:41.770Z,2.10
2023-04-02T04:49:15.649Z,2.30
2023-04-02T04:51:48.058Z,1.90
2023-04-02T04:54:17.043Z,1.80
2023-04-02T04:56:48.508Z,2.67
2023-04-02T04:59:21.921Z,2.20
2023-04-02T05:01:54.641Z,2.20
2023-04-02T05:04:27.704Z,2.00
2023-04-02T05:06:58.414Z,2.50
2023-04-02T05:09:33.571Z,2.10
2023-04-02T05:12:07.810Z,2.03
2023-04-02T05:14:41.275Z,2.20
2023-04-02T05:17:15.587Z,2.33
2023-04-02T05:19:49.631Z,1.87
2023-04-02T05:22:27.175Z,2.10
2023-04-02T05:25:04.574Z,2.00
2023-04-02T05:27:41.533Z,2.10
2023-04-02T05:30:17.438Z,2.00
2023-04-02T05:32:51.398Z,1.90
2023-04-02T05:35:26.596Z,1.87
2023-04-02T05:37:54.517Z,1.80
2023-04-02T05:40:26.839Z,1.50
2023-04-02T05:42:55.786Z,2.00
2023-04-02T05:45:32.867Z,1.87
2023-04-02T05:48:04.576Z,1.97
2023-04-02T05:50:39.969Z,1.90
2023-04-02T05:53:12.153Z,1.63
2023-04-02T05:55:46.176Z,2.80
2023-04-02T05:58:35.282Z,2.10
2023-04-02T06:01:22.926Z,1.83
2023-04-02T06:04:01.724Z,1.70
2023-04-02T06:06:45.132Z,2.00
2023-04-02T06:09:16.795Z,2.00
2023-04-02T06:11:47.526Z,2.27
2023-04-02T06:14:17.945Z,2.00
2023-04-02T06:16:47.204Z,1.80
2023-04-02T06:19:20.536Z,1.97
2023-04-02T06:21:52.689Z,1.87
2023-04-02T06:24:26.268Z,1.53
2023-04-02T06:26:58.724Z,1.60
2023-04-02T06:29:33.981Z,1.90
2023-04-02T06:32:03.138Z,1.97
2023-04-02T06:34:32.822Z,1.80
2023-04-02T06:37:04.993Z,1.60
2023-04-02T06:39:32.897Z,1.87
2023-04-02T06:42:03.932Z,1.60
2023-04-02T06:44:36.316Z,2.23
2023-04-02T06:47:08.363Z,1.70
2023-04-02T06:49:43.709Z,2.27
2023-04-02T06:52:20.953Z,1.77
2023-04-02T06:54:49.312Z,1.60
2023-04-02T06:57:18.335Z,1.50
2023-04-02T06:59:46.225Z,1.80
2023-04-02T07:02:27.716Z,1.60
2023-04-02T07:05:00.053Z,1.60
2023-04-02T07:07:29.283Z,1.70
2023-04-02T07:09:57.934Z,1.77
2023-04-02T07:12:26.733Z,1.90
2023-04-02T07:14:54.768Z,1.70
2023-04-02T07:17:22.915Z,1.90
2023-04-02T07:19:50.713Z,1.27
2023-04-02T07:22:19.844Z,1.60
2023-04-02T07:24:48.937Z,1.37
2023-04-02T07:27:16.958Z,1.70
2023-04-02T07:29:44.774Z,1.67
2023-04-02T07:32:13.259Z,1.70
2023-04-02T07:34:42.378Z,1.80
2023-04-02T07:37:13.895Z,1.50
2023-04-02T07:39:41.748Z,1.60
2023-04-02T07:42:11.254Z,2.03
2023-04-02T07:44:39.041Z,1.50
2023-04-02T07:47:07.422Z,1.97
2023-04-02T07:49:35.242Z,1.70
2023-04-02T07:52:02.975Z,2.20
2023-04-02T07:54:30.786Z,1.70
2023-04-02T07:56:58.489Z,1.50
2023-04-02T07:59:27.561Z,1.90
2023-04-02T08:01:55.464Z,1.70
2023-04-02T08:04:23.875Z,1.77
2023-04-02T08:06:52.880Z,1.63
2023-04-02T08:09:20.786Z,1.83
2023-04-02T08:11:48.609Z,1.60
2023-04-02T08:14:16.320Z,2.13
2023-04-02T08:16:50.812Z,1.87
2023-04-02T08:19:18.862Z,1.67
2023-04-02T08:21:48.088Z,1.70
2023-04-02T08:24:17.937Z,1.80
2023-04-02T08:26:45.725Z,2.53
2023-04-02T08:29:13.420Z,1.80
2023-04-02T08:31:41.660Z,1.70
2023-04-02T08:34:10.919Z,1.43
2023-04-02T08:36:40.426Z,1.83
2023-04-02T08:39:11.633Z,1.93
2023-04-02T08:41:45.971Z,1.93
2023-04-02T08:44:23.507Z,1.83
2023-04-02T08:46:55.493Z,1.97
2023-04-02T08:49:32.276Z,1.50
2023-04-02T08:52:00.776Z,1.70
2023-04-02T08:54:30.593Z,1.70
2023-04-02T08:57:03.093Z,1.70
2023-04-02T08:59:35.476Z,1.70
2023-04-02T09:02:22.471Z,1.53
2023-04-02T09:04:52.453Z,1.90
2023-04-02T09:07:20.330Z,1.90
2023-04-02T09:09:49.835Z,1.40
2023-04-02T09:12:20.442Z,1.67
2023-04-02T09:15:00.968Z,1.57
2023-04-02T09:17:32.810Z,1.33
2023-04-02T09:20:17.926Z,1.60
2023-04-02T09:22:46.939Z,1.80
2023-04-02T09:25:18.092Z,1.53
2023-04-02T09:27:49.123Z,1.67
2023-04-02T09:30:29.527Z,1.57
2023-04-02T09:33:00.795Z,1.73
2023-04-02T09:35:32.415Z,1.97
2023-04-02T09:38:19.715Z,1.73
2023-04-02T09:40:51.107Z,1.90
2023-04-02T09:43:20.904Z,2.43
2023-04-02T09:45:59.339Z,1.50
2023-04-02T09:48:31.300Z,1.60
2023-04-02T09:51:15.365Z,1.47
2023-04-02T09:53:45.933Z,2.27
2023-04-02T09:56:19.388Z,1.70
2023-04-02T09:59:02.536Z,1.50
2023-04-02T10:01:33.138Z,1.50
2023-04-02T10:04:03.570Z,1.60
2023-04-02T10:06:35.234Z,1.67
2023-04-02T10:09:21.248Z,1.50
2023-04-02T10:11:51.063Z,1.40
2023-04-02T10:14:22.801Z,1.60
2023-04-02T10:16:53.433Z,1.80
2023-04-02T10:19:29.050Z,1.50
2023-04-02T10:22:01.098Z,1.50
2023-04-02T10:24:29.758Z,1.60
2023-04-02T10:27:06.675Z,1.50
2023-04-02T10:29:53.157Z,1.47
2023-04-02T10:32:26.266Z,1.40
2023-04-02T10:34:59.476Z,1.60
2023-04-02T10:38:08.961Z,1.70
2023-04-02T10:40:41.782Z,1.50
2023-04-02T10:43:44.996Z,1.60
2023-04-02T10:46:24.491Z,1.70
2023-04-02T10:49:00.465Z,1.50
2023-04-02T10:51:34.828Z,1.40
2023-04-02T10:54:13.973Z,1.63
2023-04-02T10:56:51.124Z,1.80
2023-04-02T10:59:22.226Z,1.37
2023-04-02T11:01:52.137Z,1.70
2023-04-02T11:04:23.616Z,1.67
2023-04-02T11:07:07.225Z,1.70
2023-04-02T11:09:44.970Z,2.17
2023-04-02T11:12:23.052Z,1.40
2023-04-02T11:14:52.600Z,1.73
2023-04-02T11:17:20.720Z,1.53
2023-04-02T11:19:48.601Z,1.60
2023-04-02T11:22:18.207Z,1.27
2023-04-02T11:24:47.866Z,1.93
2023-04-02T11:27:27.838Z,1.80
2023-04-02T11:30:04.115Z,2.03
2023-04-02T11:32:42.437Z,1.53
2023-04-02T11:35:27.794Z,1.80
2023-04-02T11:37:56.877Z,1.60
2023-04-02T11:40:49.380Z,1.80
2023-04-02T11:44:00.449Z,2.20
2023-04-02T11:46:41.978Z,1.60
2023-04-02T11:49:37.664Z,1.53
2023-04-02T11:52:19.988Z,1.57
2023-04-02T11:54:55.860Z,1.40
2023-04-02T11:57:36.580Z,1.80
2023-04-02T12:00:20.187Z,1.80
2023-04-02T12:03:03.492Z,1.80
2023-04-02T12:05:37.863Z,1.80
2023-04-02T12:08:31.923Z,1.77
2023-04-02T12:11:02.006Z,1.47
2023-04-02T12:13:51.476Z,1.50
2023-04-02T12:16:21.261Z,1.80
2023-04-02T12:18:53.989Z,1.80
2023-04-02T12:21:25.636Z,1.50
2023-04-02T12:23:56.336Z,1.73
2023-04-02T12:26:37.381Z,1.50
2023-04-02T12:29:24.418Z,1.70
2023-04-02T12:31:54.720Z,1.53
2023-04-02T12:34:24.584Z,1.50
2023-04-02T12:36:54.426Z,1.70
2023-04-02T12:39:22.675Z,1.77
2023-04-02T12:41:50.471Z,1.60
2023-04-02T12:44:21.658Z,1.50
2023-04-02T12:46:51.260Z,1.80
2023-04-02T12:49:31.968Z,1.67
2023-04-02T12:52:02.776Z,1.73
2023-04-02T12:54:34.471Z,1.60
2023-04-02T12:57:46.990Z,1.50
2023-04-02T13:00:36.194Z,1.50
2023-04-02T13:03:18.993Z,1.17
2023-04-02T13:05:52.157Z,1.90
2023-04-02T13:08:23.550Z,1.63
2023-04-02T13:10:56.095Z,1.87
2023-04-02T13:13:28.571Z,1.30
2023-04-02T13:16:09.772Z,1.60
2023-04-02T13:18:39.366Z,1.70
2023-04-02T13:21:28.322Z,1.93
2023-04-02T13:23:56.760Z,1.90
2023-04-02T13:26:27.217Z,1.80
2023-04-02T13:28:59.815Z,1.50
2023-04-02T13:31:28.706Z,1.93
2023-04-02T13:33:56.411Z,1.50
2023-04-02T13:36:25.811Z,2.17
2023-04-02T13:38:53.463Z,1.90
2023-04-02T13:41:24.648Z,2.13
2023-04-02T13:43:53.895Z,1.70
2023-04-02T13:46:24.230Z,2.33
2023-04-02T13:48:53.167Z,1.90
2023-04-02T13:51:23.859Z,1.80
2023-04-02T13:53:58.101Z,1.83
2023-04-02T13:56:26.308Z,1.70
2023-04-02T13:58:54.236Z,1.57
2023-04-02T14:01:25.914Z,1.73
2023-04-02T14:03:55.652Z,1.80
2023-04-02T14:06:31.856Z,1.40
2023-04-02T14:09:06.623Z,1.93
2023-04-02T14:11:47.361Z,1.83
2023-04-02T14:14:38.639Z,2.03
2023-04-02T14:17:18.062Z,1.83
2023-04-02T14:20:01.022Z,1.40
2023-04-02T14:22:44.899Z,1.80
2023-04-02T14:25:19.868Z,1.70
2023-04-02T14:27:58.900Z,1.90
2023-04-02T14:30:36.196Z,2.07
2023-04-02T14:33:11.104Z,1.90
2023-04-02T14:35:44.344Z,1.80
2023-04-02T14:38:19.172Z,1.93
2023-04-02T14:40:51.502Z,1.83
2023-04-02T14:43:24.704Z,2.23
2023-04-02T14:46:03.243Z,1.70
2023-04-02T14:48:47.604Z,2.00
2023-04-02T14:51:23.296Z,1.80
2023-04-02T14:54:04.017Z,2.00
2023-04-02T14:56:38.804Z,2.07
2023-04-02T14:59:20.493Z,1.50
2023-04-02T15:01:54.302Z,2.13
2023-04-02T15:04:26.699Z,1.90
2023-04-02T15:07:00.617Z,2.10
2023-04-02T15:09:33.116Z,2.30
2023-04-02T15:12:08.224Z,2.23
2023-04-02T15:14:42.161Z,1.77
2023-04-02T15:17:11.761Z,2.00
2023-04-02T15:19:39.687Z,1.70
2023-04-02T15:22:29.412Z,1.90
2023-04-02T15:25:07.890Z,2.00
2023-04-02T15:27:57.109Z,2.03
2023-04-02T15:30:28.934Z,2.20
2023-04-02T15:33:18.460Z,2.17
2023-04-02T15:35:52.407Z,2.03
2023-04-02T15:38:26.134Z,2.10
2023-04-02T15:40:59.709Z,2.00
2023-04-02T15:43:31.655Z,2.30
2023-04-02T15:46:10.351Z,2.50
2023-04-02T15:49:01.229Z,2.20
2023-04-02T15:51:40.268Z,2.20
2023-04-02T15:54:21.676Z,1.93
2023-04-02T15:56:56.290Z,2.30
2023-04-02T15:59:52.426Z,1.90
2023-04-02T16:02:52.019Z,2.73
2023-04-02T16:05:29.930Z,2.13
2023-04-02T16:08:13.197Z,2.17
2023-04-02T16:10:43.277Z,2.40
2023-04-02T16:13:18.869Z,1.90
2023-04-02T16:15:52.752Z,2.03
2023-04-02T16:18:35.685Z,2.57
2023-04-02T16:21:04.637Z,2.50
2023-04-02T16:23:36.070Z,2.77
2023-04-02T16:26:13.078Z,2.30
2023-04-02T16:28:48.310Z,2.20
2023-04-02T16:31:24.824Z,2.03
2023-04-02T16:34:02.412Z,2.00
2023-04-02T16:36:46.413Z,2.17
2023-04-02T16:39:28.706Z,2.10
2023-04-02T16:42:08.865Z,2.20
2023-04-02T16:44:46.998Z,2.10
2023-04-02T16:47:29.079Z,2.27
2023-04-02T16:50:03.092Z,2.27
2023-04-02T16:52:41.463Z,2.10
2023-04-02T16:55:24.397Z,2.50
2023-04-02T16:57:59.818Z,1.90
2023-04-02T17:00:35.940Z,2.30
2023-04-02T17:03:26.731Z,2.30
2023-04-02T17:05:59.387Z,1.93
2023-04-02T17:08:31.400Z,2.30
2023-04-02T17:11:02.545Z,2.37
2023-04-02T17:13:39.046Z,2.60
2023-04-02T17:16:15.095Z,2.50
2023-04-02T17:18:47.243Z,2.20
2023-04-02T17:21:18.615Z,2.27
2023-04-02T17:26:24.413Z,2.57
2023-04-02T17:28:52.927Z,2.23
2023-04-02T17:31:23.676Z,1.90
2023-04-02T17:33:52.858Z,1.87
2023-04-02T17:36:33.210Z,1.90
2023-04-02T17:39:11.005Z,1.60
2023-04-02T17:41:43.906Z,1.60
2023-04-02T17:44:46.143Z,1.80
2023-04-02T17:47:20.778Z,1.93
2023-04-02T17:50:08.243Z,2.33
2023-04-02T17:52:41.686Z,2.10
2023-04-02T17:55:22.592Z,2.10
2023-04-02T17:58:01.190Z,2.37
2023-04-02T18:00:55.445Z,2.10
2023-04-02T18:03:36.513Z,2.00
2023-04-02T18:06:12.232Z,2.83
2023-04-02T18:08:51.461Z,2.80
2023-04-02T18:11:30.768Z,2.40
2023-04-02T18:14:01.270Z,2.30
2023-04-02T18:16:44.471Z,2.10
2023-04-02T18:19:18.338Z,2.67
2023-04-02T18:21:55.463Z,2.03
2023-04-02T18:24:39.148Z,2.40
2023-04-02T18:27:40.132Z,2.50
2023-04-02T18:30:16.849Z,2.03
2023-04-02T18:33:05.766Z,6.10
2023-04-02T18:35:35.036Z,2.60
2023-04-02T18:38:20.143Z,2.07
2023-04-02T18:41:00.669Z,1.83
2023-04-02T18:43:38.758Z,1.90
2023-04-02T18:46:17.564Z,1.97
2023-04-02T18:48:56.773Z,2.10
2023-04-02T18:51:26.394Z,2.13
2023-04-02T18:54:03.893Z,2.07
2023-04-02T18:56:32.969Z,1.90
2023-04-02T18:59:15.566Z,2.30
2023-04-02T19:01:48.184Z,2.90
2023-04-02T19:04:20.138Z,2.53
2023-04-02T19:06:53.848Z,2.90
2023-04-02T19:09:28.452Z,2.60
2023-04-02T19:11:56.545Z,2.20
2023-04-02T19:14:24.736Z,2.10
2023-04-02T19:17:03.575Z,2.27
2023-04-02T19:19:38.387Z,2.20
2023-04-02T19:22:16.664Z,2.57
2023-04-02T19:25:20.048Z,2.30
2023-04-02T19:27:58.551Z,2.10
2023-04-02T19:30:38.846Z,1.80
2023-04-02T19:33:16.638Z,2.30
2023-04-02T19:35:49.033Z,2.37
2023-04-02T19:38:33.561Z,2.13
2023-04-02T19:41:10.952Z,2.03
2023-04-02T19:43:38.766Z,2.30
2023-04-02T19:46:07.032Z,2.20
2023-04-02T19:48:44.491Z,2.37
2023-04-02T19:51:12.244Z,2.13
2023-04-02T19:53:40.074Z,2.20
2023-04-02T19:56:09.227Z,2.53
2023-04-02T19:58:37.733Z,2.50
2023-04-02T20:01:05.679Z,2.50
2023-04-02T20:03:33.736Z,2.30
2023-04-02T20:06:01.558Z,2.30
2023-04-02T20:08:29.376Z,2.30
2023-04-02T20:10:58.584Z,2.50
2023-04-02T20:13:27.889Z,2.40
2023-04-02T20:15:55.792Z,2.10
2023-04-02T20:18:23.571Z,2.30
2023-04-02T20:20:51.263Z,2.33
2023-04-02T20:23:20.074Z,2.20
2023-04-02T20:25:52.782Z,2.47
2023-04-02T20:28:20.585Z,2.10
2023-04-02T20:30:51.121Z,2.70
2023-04-02T20:33:19.574Z,3.00
2023-04-02T20:35:47.660Z,2.50
2023-04-02T20:38:15.867Z,2.90
2023-04-02T20:40:44.087Z,2.80
2023-04-02T20:43:12.050Z,2.30
2023-04-02T20:45:39.818Z,2.60
2023-04-02T20:48:09.298Z,2.40
2023-04-02T20:50:37.490Z,2.40
2023-04-02T20:53:05.496Z,2.53
2023-04-02T20:55:33.262Z,2.73
2023-04-02T20:58:01.198Z,2.50
2023-04-02T21:00:28.920Z,2.73
2023-04-02T21:02:57.662Z,2.90
2023-04-02T21:05:26.911Z,2.60
2023-04-02T21:07:54.642Z,2.77
2023-04-02T21:10:22.383Z,2.77
2023-04-02T21:12:50.649Z,2.70
2023-04-02T21:15:18.610Z,3.07
2023-04-02T21:17:46.397Z,2.93
2023-04-02T21:20:14.131Z,2.83
2023-04-02T21:22:43.299Z,2.93
2023-04-02T21:25:11.015Z,2.80
2023-04-02T21:27:38.759Z,2.40
2023-04-02T21:30:07.719Z,2.63
2023-04-02T21:32:35.519Z,2.73
2023-04-02T21:35:03.248Z,3.07
2023-04-02T21:37:31.143Z,3.30
2023-04-02T21:40:00.204Z,2.73
2023-04-02T21:42:28.859Z,3.47
2023-04-02T21:44:56.674Z,2.93
2023-04-02T21:47:24.889Z,3.43
2023-04-02T21:49:52.561Z,2.97
2023-04-02T21:52:20.264Z,2.90
2023-04-02T21:54:47.935Z,2.60
2023-04-02T21:57:17.968Z,2.87
2023-04-02T21:59:46.837Z,2.90
2023-04-02T22:02:14.487Z,3.20
2023-04-02T22:04:42.373Z,2.77
2023-04-02T22:07:10.106Z,2.93
2023-04-02T22:09:37.796Z,3.10
2023-04-02T22:12:07.860Z,3.10
2023-04-02T22:14:36.964Z,3.20
2023-04-02T22:17:04.830Z,3.27
2023-04-02T22:19:33.420Z,3.00
2023-04-02T22:22:01.131Z,2.80
2023-04-02T22:24:28.998Z,2.93
2023-04-02T22:26:56.691Z,2.60
2023-04-02T22:29:24.746Z,3.00
2023-04-02T22:31:53.863Z,3.33
2023-04-02T22:34:22.106Z,3.20
2023-04-02T22:36:49.927Z,3.10
2023-04-02T22:39:17.881Z,3.07
2023-04-02T22:41:45.748Z,3.37
2023-04-02T22:44:15.439Z,2.97
2023-04-02T22:46:43.251Z,3.37
2023-04-02T22:49:12.730Z,3.13
2023-04-02T22:51:40.515Z,3.20
2023-04-02T22:54:08.206Z,2.73
2023-04-02T22:56:37.444Z,2.90
2023-04-02T22:59:05.706Z,2.80
2023-04-02T23:01:35.718Z,3.00
2023-04-02T23:04:05.027Z,2.57
2023-04-02T23:06:34.622Z,3.20
2023-04-02T23:09:02.329Z,3.10
2023-04-02T23:11:30.333Z,2.93
2023-04-02T23:13:58.946Z,3.00
2023-04-02T23:16:28.596Z,3.03
2023-04-02T23:18:57.296Z,2.70
2023-04-02T23:21:25.558Z,3.00
2023-04-02T23:23:55.029Z,2.60
2023-04-02T23:26:24.569Z,2.63
2023-04-02T23:28:52.509Z,2.50
2023-04-02T23:31:22.435Z,2.67
2023-04-02T23:33:51.206Z,2.60
2023-04-02T23:36:22.575Z,2.73
2023-04-02T23:38:54.889Z,2.53
2023-04-02T23:41:26.710Z,2.47
2023-04-02T23:43:54.786Z,2.57
2023-04-02T23:46:22.859Z,2.40
2023-04-02T23:48:51.485Z,2.50
2023-04-02T23:51:19.918Z,2.60
2023-04-02T23:53:48.451Z,3.63
2023-04-02T23:56:16.423Z,3.77
2023-04-02T23:58:45.599Z,2.97
